Time;durP1;ratioP1;P1;durP2;ratioP2;P2;SDS_P1;SDS_P2;PMS_P1;PMS_P2;Temp;Humidity;BMP_temperature;BMP_pressure;BME280_temperature;BME280_humidity;BME280_pressure;Samples;Min_cycle;Max_cycle;Signal;HPM_P1;HPM_P2
2022/03/18 00:00:28;;;;;;;36.53;25.15;;;4.80;99.90;;;;;;4989301;28;20057;-70
2022/03/18 00:02:55;;;;;;;37.90;27.42;;;4.90;99.90;;;;;;4989661;28;20112;-66
2022/03/18 00:05:27;;;;;;;39.75;26.30;;;4.90;99.90;;;;;;4988077;28;20125;-67
2022/03/18 00:07:54;;;;;;;34.05;26.60;;;4.90;99.90;;;;;;4992837;28;20728;-68
2022/03/18 00:10:21;;;;;;;34.17;26.88;;;4.90;99.90;;;;;;4993493;28;20168;-71
2022/03/18 00:12:52;;;;;;;38.67;27.13;;;4.90;99.90;;;;;;4993626;28;20459;-68
2022/03/18 00:15:19;;;;;;;38.65;27.70;;;4.90;99.90;;;;;;4991556;28;20046;-67
2022/03/18 00:17:46;;;;;;;40.42;27.00;;;4.90;99.90;;;;;;4992895;28;20361;-70
2022/03/18 00:20:14;;;;;;;36.30;26.75;;;4.90;99.90;;;;;;4993256;28;20057;-70
2022/03/18 00:22:42;;;;;;;42.78;28.58;;;5.00;99.90;;;;;;4993259;28;20146;-68
2022/03/18 00:25:11;;;;;;;38.58;28.67;;;5.00;99.90;;;;;;4991548;28;20089;-68
2022/03/18 00:27:39;;;;;;;36.97;27.70;;;5.00;99.90;;;;;;4991764;28;20217;-68
2022/03/18 00:30:06;;;;;;;33.15;26.20;;;4.90;99.90;;;;;;4993537;28;20188;-70
2022/03/18 00:32:34;;;;;;;34.63;25.58;;;4.90;99.90;;;;;;4992333;28;20104;-65
2022/03/18 00:35:21;;;;;;;39.92;27.98;;;4.90;99.90;;;;;;4991555;28;20049;-67
2022/03/18 00:37:48;;;;;;;39.55;27.88;;;4.90;99.90;;;;;;4992191;28;20152;-64
2022/03/18 00:40:15;;;;;;;42.28;28.45;;;4.90;99.90;;;;;;4993744;28;20137;-65
2022/03/18 00:42:42;;;;;;;35.33;28.40;;;4.90;99.90;;;;;;4992159;28;20092;-67
2022/03/18 00:45:09;;;;;;;40.45;28.83;;;4.90;99.90;;;;;;4991649;28;20494;-70
2022/03/18 00:53:08;;;;;;;37.45;28.08;;;5.00;99.90;;;;;;4990909;28;20065;-68
2022/03/18 00:55:35;;;;;;;42.90;30.20;;;5.10;99.90;;;;;;4993517;28;20045;-69
2022/03/18 00:58:01;;;;;;;40.30;29.35;;;5.20;99.90;;;;;;4993063;28;20058;-67
2022/03/18 01:00:28;;;;;;;42.80;29.45;;;5.30;99.90;;;;;;4989024;28;20111;-70
2022/03/18 01:02:55;;;;;;;38.30;29.15;;;5.50;99.90;;;;;;4988381;28;20050;-65
2022/03/18 01:05:23;;;;;;;37.85;29.98;;;5.50;99.90;;;;;;4985972;28;20129;-72
2022/03/18 01:07:50;;;;;;;39.92;32.17;;;5.70;99.90;;;;;;4992296;28;20054;-67
2022/03/18 01:10:17;;;;;;;45.97;31.77;;;5.80;99.90;;;;;;4993304;28;20156;-71
2022/03/18 01:12:44;;;;;;;40.88;28.00;;;5.80;99.90;;;;;;4992799;28;20051;-68
2022/03/18 01:15:11;;;;;;;41.28;31.38;;;5.90;99.90;;;;;;4990917;28;20053;-68
2022/03/18 01:17:38;;;;;;;43.83;32.08;;;6.00;99.90;;;;;;4992449;28;20222;-66
2022/03/18 01:20:06;;;;;;;41.67;31.80;;;5.90;99.90;;;;;;4992781;28;21336;-69
2022/03/18 01:22:33;;;;;;;40.38;32.13;;;5.90;99.90;;;;;;4990819;28;20699;-71
2022/03/18 01:25:00;;;;;;;42.55;32.45;;;5.90;99.90;;;;;;4986920;28;20155;-65
2022/03/18 01:27:27;;;;;;;48.42;35.08;;;5.80;99.90;;;;;;4988747;28;20061;-70
2022/03/18 01:29:54;;;;;;;47.80;31.55;;;5.80;99.90;;;;;;4991152;28;20054;-70
2022/03/18 01:32:21;;;;;;;43.70;31.85;;;5.80;99.90;;;;;;4992739;28;20050;-65
2022/03/18 01:34:48;;;;;;;45.20;32.25;;;5.70;99.90;;;;;;4990795;28;20054;-66
2022/03/18 01:37:15;;;;;;;53.60;36.15;;;5.70;99.90;;;;;;4991040;28;20262;-66
2022/03/18 01:39:42;;;;;;;51.25;35.22;;;5.60;99.90;;;;;;4992724;28;20168;-66
2022/03/18 01:42:09;;;;;;;48.97;34.03;;;5.60;99.90;;;;;;4992188;28;20512;-68
2022/03/18 01:44:43;;;;;;;51.25;33.72;;;5.60;99.90;;;;;;4992215;28;20072;-68
2022/03/18 01:47:11;;;;;;;46.15;35.40;;;5.60;99.90;;;;;;4988170;28;20049;-69
2022/03/18 01:49:39;;;;;;;46.75;34.45;;;5.50;99.90;;;;;;4992667;28;20506;-68
2022/03/18 01:52:08;;;;;;;49.78;36.35;;;5.50;99.90;;;;;;4991890;28;20053;-67
2022/03/18 01:54:45;;;;;;;52.42;38.88;;;5.50;99.90;;;;;;4993793;28;21747;-69
2022/03/18 01:57:15;;;;;;;43.20;35.13;;;5.50;99.90;;;;;;4993542;28;20054;-71
2022/03/18 01:59:42;;;;;;;47.28;34.78;;;5.50;99.90;;;;;;4993567;28;20062;-67
2022/03/18 02:02:09;;;;;;;46.72;33.25;;;5.40;99.90;;;;;;4990863;28;20145;-68
2022/03/18 02:04:36;;;;;;;48.00;34.08;;;5.40;99.90;;;;;;4990281;28;20148;-68
2022/03/18 02:07:04;;;;;;;48.20;35.33;;;5.40;99.90;;;;;;4992381;28;20046;-67
2022/03/18 02:09:32;;;;;;;52.97;40.35;;;5.30;99.90;;;;;;4995219;28;20151;-69
2022/03/18 02:12:01;;;;;;;49.90;36.17;;;5.30;99.90;;;;;;4992301;28;20054;-71
2022/03/18 02:14:55;;;;;;;56.05;37.97;;;5.20;99.90;;;;;;4991781;28;20050;-67
2022/03/18 02:17:23;;;;;;;52.05;35.92;;;5.20;99.90;;;;;;4987961;28;20066;-71
2022/03/18 02:19:50;;;;;;;52.63;38.20;;;5.20;99.90;;;;;;4990213;28;20042;-70
2022/03/18 02:22:22;;;;;;;57.13;38.97;;;5.20;99.90;;;;;;4990970;28;20185;-70
2022/03/18 02:24:55;;;;;;;51.08;36.33;;;5.10;99.90;;;;;;4989940;28;20963;-73
2022/03/18 02:27:22;;;;;;;50.33;36.33;;;5.10;99.90;;;;;;4989829;28;20058;-67
2022/03/18 02:29:50;;;;;;;62.38;41.45;;;5.10;99.90;;;;;;4990126;28;20779;-69
2022/03/18 02:32:18;;;;;;;51.40;38.13;;;5.00;99.90;;;;;;4992061;28;20114;-64
2022/03/18 02:34:45;;;;;;;54.05;38.67;;;5.10;99.90;;;;;;4990640;28;20072;-72
2022/03/18 02:37:12;;;;;;;56.50;39.92;;;5.10;99.90;;;;;;4990288;28;20045;-67
2022/03/18 02:39:39;;;;;;;52.35;38.65;;;5.10;99.90;;;;;;4991064;28;20131;-69
2022/03/18 02:42:06;;;;;;;57.33;43.15;;;5.10;99.90;;;;;;4991320;28;20141;-68
2022/03/18 02:44:33;;;;;;;53.72;40.65;;;5.10;99.90;;;;;;4989175;28;21149;-68
2022/03/18 02:47:01;;;;;;;58.13;39.45;;;5.10;99.90;;;;;;4988747;28;20061;-68
2022/03/18 02:49:28;;;;;;;54.33;38.42;;;5.10;99.90;;;;;;4988730;28;20046;-70
2022/03/18 02:51:56;;;;;;;60.13;45.03;;;5.10;99.90;;;;;;4990034;28;20067;-66
2022/03/18 02:54:23;;;;;;;62.35;42.67;;;5.10;99.90;;;;;;4990451;28;20057;-68
2022/03/18 02:56:50;;;;;;;57.22;40.63;;;5.10;99.90;;;;;;4990723;28;20046;-70
2022/03/18 02:59:17;;;;;;;66.22;43.97;;;5.10;99.90;;;;;;4988455;28;20975;-65
2022/03/18 03:01:44;;;;;;;60.63;43.90;;;5.10;99.90;;;;;;4991131;28;20149;-68
2022/03/18 03:04:13;;;;;;;65.18;43.10;;;5.20;99.90;;;;;;4990610;28;20137;-69
2022/03/18 03:09:26;;;;;;;63.10;45.88;;;5.20;99.90;;;;;;4987736;28;20057;-70
2022/03/18 03:11:53;;;;;;;60.75;42.25;;;5.20;99.90;;;;;;4988508;28;20148;-68
2022/03/18 03:14:20;;;;;;;58.13;40.85;;;5.20;99.90;;;;;;4990559;28;20648;-67
2022/03/18 03:16:47;;;;;;;56.60;40.92;;;5.10;99.90;;;;;;4988258;28;20045;-69
2022/03/18 03:19:14;;;;;;;69.57;46.00;;;5.10;99.90;;;;;;4987488;28;20750;-68
2022/03/18 03:21:41;;;;;;;61.60;46.17;;;5.10;99.90;;;;;;4990037;28;20050;-69
2022/03/18 03:24:08;;;;;;;61.75;45.20;;;5.10;99.90;;;;;;4989205;28;20127;-65
2022/03/18 03:26:36;;;;;;;64.93;45.60;;;5.10;99.90;;;;;;4989517;28;20053;-70
2022/03/18 03:29:03;;;;;;;68.50;45.40;;;5.10;99.90;;;;;;4988678;28;20054;-70
2022/03/18 03:31:30;;;;;;;63.47;45.05;;;5.10;99.90;;;;;;4990311;28;20081;-72
2022/03/18 03:33:58;;;;;;;61.25;43.38;;;5.10;99.90;;;;;;4989256;28;21513;-67
2022/03/18 03:36:25;;;;;;;61.40;43.72;;;5.10;99.90;;;;;;4990321;28;20175;-72
2022/03/18 03:38:52;;;;;;;66.80;45.30;;;5.10;99.90;;;;;;4988945;28;20061;-71
2022/03/18 03:41:21;;;;;;;65.30;43.03;;;5.10;99.90;;;;;;4987395;28;20057;-68
2022/03/18 03:43:49;;;;;;;68.20;46.38;;;5.10;99.90;;;;;;4989440;28;20111;-65
2022/03/18 03:46:17;;;;;;;64.70;45.63;;;5.10;99.90;;;;;;4988194;28;20283;-70
2022/03/18 03:48:44;;;;;;;67.70;46.55;;;5.10;99.90;;;;;;4988120;28;20046;-70
2022/03/18 03:51:11;;;;;;;72.93;46.90;;;5.10;99.90;;;;;;4988424;28;20057;-65
2022/03/18 03:53:38;;;;;;;72.75;49.47;;;5.10;99.90;;;;;;4989234;28;20134;-67
2022/03/18 03:56:05;;;;;;;65.30;45.65;;;5.10;99.90;;;;;;4988816;28;20077;-70
2022/03/18 03:58:32;;;;;;;63.60;44.85;;;5.00;99.90;;;;;;4990134;28;20050;-70
2022/03/18 04:00:59;;;;;;;68.90;46.30;;;5.00;99.90;;;;;;4988099;28;20388;-67
2022/03/18 04:03:28;;;;;;;72.05;49.92;;;5.00;99.90;;;;;;4987195;28;20061;-68
2022/03/18 04:05:55;;;;;;;72.15;45.10;;;5.00;99.90;;;;;;4988999;28;20076;-69
2022/03/18 04:08:22;;;;;;;63.15;46.10;;;5.00;99.90;;;;;;4989343;28;20054;-73
2022/03/18 04:10:49;;;;;;;70.25;49.03;;;5.00;99.90;;;;;;4988441;28;20159;-67
2022/03/18 04:13:16;;;;;;;67.88;46.97;;;5.00;99.90;;;;;;4970634;28;21598;-66
2022/03/18 04:15:43;;;;;;;69.57;49.03;;;5.00;99.90;;;;;;4989031;28;20518;-69
2022/03/18 04:18:10;;;;;;;69.32;48.45;;;5.00;99.90;;;;;;4987658;28;20050;-68
2022/03/18 04:20:37;;;;;;;70.72;47.90;;;5.00;99.90;;;;;;4989006;28;20076;-66
2022/03/18 04:23:04;;;;;;;70.07;48.97;;;5.00;99.90;;;;;;4986280;28;20160;-64
2022/03/18 04:25:31;;;;;;;72.97;51.92;;;5.00;99.90;;;;;;4989224;28;20061;-69
2022/03/18 04:27:58;;;;;;;71.95;49.38;;;5.00;99.90;;;;;;4989454;28;20458;-70
2022/03/18 04:30:26;;;;;;;71.10;48.80;;;5.00;99.90;;;;;;4989737;28;20054;-64
2022/03/18 04:32:53;;;;;;;71.13;49.70;;;5.00;99.90;;;;;;4989034;28;20049;-70
2022/03/18 04:35:20;;;;;;;70.82;50.50;;;5.00;99.90;;;;;;4987528;28;20095;-68
2022/03/18 04:37:47;;;;;;;71.97;49.83;;;5.00;99.90;;;;;;4988870;28;20127;-68
2022/03/18 04:40:14;;;;;;;79.93;54.90;;;5.00;99.90;;;;;;4987918;28;20165;-70
2022/03/18 04:42:44;;;;;;;73.63;52.63;;;5.00;99.90;;;;;;4990333;28;20050;-65
2022/03/18 04:45:12;;;;;;;71.57;48.83;;;5.00;99.90;;;;;;4987259;28;20912;-68
2022/03/18 04:47:39;;;;;;;77.70;49.28;;;5.00;99.90;;;;;;4988743;28;20062;-69
2022/03/18 04:50:07;;;;;;;72.82;50.28;;;5.00;99.90;;;;;;4988855;28;20081;-67
2022/03/18 04:52:34;;;;;;;74.63;53.22;;;5.00;99.90;;;;;;4988656;28;20054;-66
2022/03/18 04:55:01;;;;;;;78.65;51.15;;;5.00;99.90;;;;;;4986666;28;20208;-68
2022/03/18 04:57:28;;;;;;;70.78;51.45;;;5.00;99.90;;;;;;4989111;28;20046;-67
2022/03/18 04:59:56;;;;;;;75.63;53.35;;;5.00;99.90;;;;;;4989395;28;20690;-68
2022/03/18 05:02:24;;;;;;;76.60;49.03;;;5.00;99.90;;;;;;4987780;28;20054;-67
2022/03/18 05:04:53;;;;;;;83.85;56.50;;;5.00;99.90;;;;;;4989661;28;20046;-70
2022/03/18 05:07:20;;;;;;;83.40;55.10;;;5.00;99.90;;;;;;4986439;28;20057;-70
2022/03/18 05:09:48;;;;;;;88.97;54.40;;;5.00;99.90;;;;;;4987725;28;20131;-68
2022/03/18 05:12:17;;;;;;;81.97;53.10;;;5.00;99.90;;;;;;4988845;28;20049;-68
2022/03/18 05:14:50;;;;;;;75.65;50.72;;;5.00;99.90;;;;;;4988604;28;20134;-66
2022/03/18 05:17:17;;;;;;;81.78;54.92;;;5.10;99.90;;;;;;4986106;28;20058;-68
2022/03/18 05:19:44;;;;;;;75.65;52.13;;;5.00;99.90;;;;;;4987840;28;20054;-74
2022/03/18 05:22:11;;;;;;;80.03;53.70;;;5.10;99.90;;;;;;4988329;28;20053;-71
2022/03/18 05:24:38;;;;;;;77.03;51.92;;;5.10;99.90;;;;;;4988606;28;20050;-70
2022/03/18 05:27:05;;;;;;;74.82;52.60;;;5.10;99.90;;;;;;4986243;28;20516;-69
2022/03/18 05:29:33;;;;;;;76.22;53.05;;;5.10;99.90;;;;;;4990189;28;20423;-67
2022/03/18 05:32:01;;;;;;;77.57;55.15;;;5.10;99.90;;;;;;4991749;28;20071;-70
2022/03/18 05:34:29;;;;;;;71.65;49.53;;;5.10;99.90;;;;;;4991886;28;20476;-70
2022/03/18 05:36:55;;;;;;;80.85;53.03;;;5.10;99.90;;;;;;4990514;28;20159;-66
2022/03/18 05:39:23;;;;;;;73.97;51.13;;;5.10;99.90;;;;;;4990276;28;20556;-71
2022/03/18 05:41:50;;;;;;;75.82;54.15;;;5.10;99.90;;;;;;4990348;28;22379;-71
2022/03/18 05:44:17;;;;;;;65.95;43.60;;;5.20;99.90;;;;;;4991966;28;20054;-68
2022/03/18 05:46:44;;;;;;;70.40;42.83;;;5.20;99.90;;;;;;4990874;28;20045;-68
2022/03/18 05:49:12;;;;;;;70.38;46.83;;;5.30;99.90;;;;;;4989433;28;20631;-69
2022/03/18 05:51:39;;;;;;;62.67;42.63;;;5.30;99.90;;;;;;4991023;28;20050;-71
2022/03/18 05:54:06;;;;;;;60.67;39.55;;;5.40;99.90;;;;;;4991119;28;20133;-68
2022/03/18 05:59:24;;;;;;;59.28;40.38;;;5.40;99.90;;;;;;4989985;28;20081;-70
2022/03/18 06:01:53;;;;;;;63.40;40.67;;;5.40;99.90;;;;;;4990474;28;20459;-70
2022/03/18 06:04:21;;;;;;;58.13;39.22;;;5.40;99.90;;;;;;4989316;28;20061;-67
2022/03/18 06:06:48;;;;;;;56.70;37.90;;;5.40;99.90;;;;;;4991106;28;20752;-69
2022/03/18 06:12:04;;;;;;;61.55;39.45;;;5.50;99.90;;;;;;4990902;28;20140;-68
2022/03/18 06:14:31;;;;;;;54.13;37.63;;;5.50;99.90;;;;;;4991101;28;20641;-67
2022/03/18 06:17:00;;;;;;;55.22;38.90;;;5.50;99.90;;;;;;4990262;28;20463;-67
2022/03/18 06:19:29;;;;;;;54.63;32.95;;;5.40;99.90;;;;;;4990577;28;20145;-68
2022/03/18 06:21:57;;;;;;;58.75;38.40;;;5.50;99.90;;;;;;4990647;28;20054;-73
2022/03/18 06:24:24;;;;;;;52.63;32.58;;;5.50;99.90;;;;;;4990534;28;20657;-70
2022/03/18 06:26:52;;;;;;;49.58;32.72;;;5.50;99.90;;;;;;4990525;28;20136;-68
2022/03/18 06:29:20;;;;;;;52.90;32.75;;;5.50;99.90;;;;;;4989757;28;20524;-72
2022/03/18 06:31:47;;;;;;;49.00;29.38;;;5.50;99.90;;;;;;4990523;28;20052;-70
2022/03/18 06:34:17;;;;;;;44.42;29.25;;;5.50;99.90;;;;;;4990374;28;20051;-69
2022/03/18 06:36:44;;;;;;;48.33;30.47;;;5.50;99.90;;;;;;4997154;28;20141;-68
2022/03/18 06:39:11;;;;;;;39.30;24.25;;;5.60;99.90;;;;;;4990857;28;20231;-65
2022/03/18 06:41:38;;;;;;;42.75;26.08;;;5.60;99.90;;;;;;4991709;28;20157;-65
2022/03/18 06:44:08;;;;;;;43.95;26.90;;;5.60;99.90;;;;;;4991077;28;20230;-73
2022/03/18 06:46:36;;;;;;;;;;;5.60;99.90;;;;;;4990748;28;20148;-69
2022/03/18 06:49:03;;;;;;;59.78;29.20;;;5.60;99.90;;;;;;4990403;28;19931;-67
2022/03/18 06:51:31;;;;;;;47.78;29.20;;;5.60;99.90;;;;;;4988004;28;20050;-69
2022/03/18 06:53:58;;;;;;;48.47;30.92;;;5.70;99.90;;;;;;4990501;28;20556;-65
2022/03/18 06:56:28;;;;;;;46.22;28.33;;;5.70;99.90;;;;;;4990630;28;20144;-70
2022/03/18 06:58:55;;;;;;;46.85;25.52;;;5.60;99.90;;;;;;4989679;28;20050;-71
2022/03/18 07:01:23;;;;;;;39.42;24.48;;;5.60;99.90;;;;;;4988348;28;20064;-66
2022/03/18 07:03:51;;;;;;;37.45;24.35;;;5.60;99.90;;;;;;4990221;28;20062;-64
2022/03/18 07:06:18;;;;;;;44.20;27.63;;;5.60;99.90;;;;;;4990433;28;20791;-69
2022/03/18 07:08:45;;;;;;;38.85;26.52;;;5.60;99.90;;;;;;4991091;28;20133;-67
2022/03/18 07:11:13;;;;;;;48.35;29.48;;;5.50;99.90;;;;;;4987781;28;20060;-70
2022/03/18 07:13:43;;;;;;;47.50;28.80;;;5.50;99.90;;;;;;4991202;28;20448;-69
2022/03/18 07:18:56;;;;;;;48.85;25.58;;;5.50;99.90;;;;;;4989990;28;20057;-67
2022/03/18 07:21:23;;;;;;;53.50;27.08;;;5.50;99.90;;;;;;4987952;28;20187;-68
2022/03/18 07:23:50;;;;;;;38.58;24.35;;;5.50;99.90;;;;;;4990641;28;20172;-68
2022/03/18 07:26:17;;;;;;;38.05;23.60;;;5.50;99.90;;;;;;4989502;28;20109;-65
2022/03/18 07:28:44;;;;;;;41.13;22.90;;;5.50;99.90;;;;;;4990614;28;20119;-71
2022/03/18 07:31:11;;;;;;;41.17;23.60;;;5.60;99.90;;;;;;4988341;28;20587;-66
2022/03/18 07:33:38;;;;;;;34.60;19.00;;;5.60;99.90;;;;;;4990212;28;20082;-65
2022/03/18 07:36:05;;;;;;;43.15;21.60;;;5.60;99.90;;;;;;4989574;28;20172;-68
2022/03/18 07:38:32;;;;;;;56.40;20.27;;;5.70;99.90;;;;;;4989639;28;20084;-71
2022/03/18 07:40:59;;;;;;;38.03;21.65;;;5.70;99.90;;;;;;4989855;28;20112;-71
2022/03/18 07:43:26;;;;;;;43.47;19.35;;;5.70;99.90;;;;;;4988682;28;20074;-67
2022/03/18 07:45:53;;;;;;;39.55;22.52;;;5.70;99.90;;;;;;4989885;28;20157;-70
2022/03/18 07:48:22;;;;;;;33.40;18.73;;;5.70;99.90;;;;;;4989062;28;20050;-64
2022/03/18 07:50:49;;;;;;;51.63;20.58;;;5.60;99.90;;;;;;4987927;28;20054;-69
2022/03/18 07:53:16;;;;;;;40.50;20.25;;;5.60;99.90;;;;;;4986216;28;20305;-70
2022/03/18 07:55:42;;;;;;;37.10;20.75;;;5.50;99.90;;;;;;4987985;28;20053;-67
2022/03/18 07:58:09;;;;;;;53.17;22.25;;;5.50;99.90;;;;;;4989262;28;20275;-69
2022/03/18 08:00:36;;;;;;;39.22;19.45;;;5.40;99.90;;;;;;4990399;28;21465;-68
2022/03/18 08:03:04;;;;;;;40.05;23.13;;;5.40;99.90;;;;;;4985427;28;20593;-68
2022/03/18 08:05:31;;;;;;;37.40;19.88;;;5.40;99.90;;;;;;4989994;28;20046;-68
2022/03/18 08:07:58;;;;;;;28.05;18.30;;;5.40;99.90;;;;;;4989482;28;20121;-70
2022/03/18 08:10:25;;;;;;;37.33;17.92;;;5.40;99.90;;;;;;4987999;28;20061;-70
2022/03/18 08:12:53;;;;;;;34.40;16.27;;;5.40;99.90;;;;;;4989344;28;20141;-71
2022/03/18 08:15:21;;;;;;;30.92;16.70;;;5.40;99.90;;;;;;4988257;28;20060;-69
2022/03/18 08:17:54;;;;;;;29.20;11.73;;;5.40;99.90;;;;;;4988023;28;20053;-68
2022/03/18 08:20:22;;;;;;;24.27;9.63;;;5.50;99.90;;;;;;4991527;28;20714;-67
2022/03/18 08:22:50;;;;;;;22.05;8.43;;;5.60;99.90;;;;;;4988518;28;20606;-71
2022/03/18 08:25:18;;;;;;;25.48;7.22;;;5.70;99.90;;;;;;4986547;28;20131;-66
2022/03/18 08:27:48;;;;;;;17.15;5.60;;;5.80;99.90;;;;;;4988256;28;20045;-67
2022/03/18 08:30:16;;;;;;;22.20;3.97;;;6.00;99.90;;;;;;4988654;28;20137;-69
2022/03/18 08:32:43;;;;;;;10.40;5.13;;;6.10;99.90;;;;;;4988042;28;20060;-70
2022/03/18 08:35:10;;;;;;;20.40;4.45;;;6.30;99.90;;;;;;4990619;28;20502;-68
2022/03/18 08:37:56;;;;;;;24.08;6.93;;;6.50;99.90;;;;;;4992316;28;20124;-70
2022/03/18 08:40:33;;;;;;;29.58;6.70;;;6.60;99.90;;;;;;4992452;28;20046;-68
2022/03/18 08:43:03;;;;;;;15.23;4.75;;;6.60;99.90;;;;;;4990981;28;20716;-67
2022/03/18 08:45:30;;;;;;;14.07;4.00;;;6.50;99.90;;;;;;4990603;28;20157;-68
2022/03/18 08:47:58;;;;;;;13.50;4.75;;;6.40;99.90;;;;;;4991359;28;20056;-68
2022/03/18 08:50:25;;;;;;;14.35;5.15;;;6.40;99.90;;;;;;4994524;28;20192;-66
2022/03/18 08:52:53;;;;;;;16.10;4.75;;;6.40;99.90;;;;;;4993999;28;20529;-68
2022/03/18 08:55:21;;;;;;;21.77;4.00;;;6.30;99.90;;;;;;4985679;28;21512;-66
2022/03/18 08:57:48;;;;;;;16.25;4.63;;;6.40;99.90;;;;;;4987315;28;20139;-68
2022/03/18 09:00:17;;;;;;;20.33;3.95;;;6.40;99.90;;;;;;4988168;28;20845;-68
2022/03/18 09:02:46;;;;;;;10.98;5.07;;;6.50;99.90;;;;;;4990010;28;20046;-67
2022/03/18 09:05:13;;;;;;;15.35;4.30;;;6.50;99.90;;;;;;4994047;28;20736;-68
2022/03/18 09:07:40;;;;;;;12.70;3.75;;;6.60;99.90;;;;;;4995648;28;20151;-68
2022/03/18 09:10:09;;;;;;;12.55;3.85;;;6.60;99.90;;;;;;4994886;28;20046;-69
2022/03/18 09:12:44;;;;;;;10.57;3.33;;;6.60;99.90;;;;;;4993198;28;20496;-69
2022/03/18 09:15:11;;;;;;;14.20;3.25;;;6.60;99.90;;;;;;4987523;28;20283;-72
2022/03/18 09:17:39;;;;;;;9.35;2.92;;;6.60;99.90;;;;;;4984675;28;20053;-69
2022/03/18 09:20:06;;;;;;;14.23;3.05;;;6.60;99.90;;;;;;4990138;28;20046;-67
2022/03/18 09:22:33;;;;;;;17.85;2.63;;;6.60;99.90;;;;;;4989692;28;20801;-69
2022/03/18 09:25:00;;;;;;;12.35;3.20;;;6.80;99.90;;;;;;4988004;28;20108;-67
2022/03/18 09:27:27;;;;;;;13.80;3.35;;;6.90;99.90;;;;;;4990832;28;20058;-69
2022/03/18 09:29:54;;;;;;;9.88;3.28;;;7.10;99.90;;;;;;4990865;28;20076;-66
2022/03/18 09:32:21;;;;;;;11.45;4.47;;;7.20;99.90;;;;;;4989292;28;20049;-69
2022/03/18 09:34:48;;;;;;;10.38;2.38;;;7.40;99.90;;;;;;4990945;28;20164;-67
2022/03/18 09:37:15;;;;;;;7.22;2.38;;;7.60;99.90;;;;;;4990223;28;20482;-68
2022/03/18 09:39:41;;;;;;;12.02;2.40;;;7.70;99.90;;;;;;4990345;28;20058;-66
2022/03/18 09:42:09;;;;;;;7.53;3.25;;;7.80;99.90;;;;;;4991126;28;20121;-69
2022/03/18 09:44:37;;;;;;;12.35;2.53;;;7.80;99.90;;;;;;4993746;28;20050;-69
2022/03/18 09:47:06;;;;;;;26.65;4.22;;;8.00;99.90;;;;;;4995734;28;20140;-68
2022/03/18 09:49:34;;;;;;;13.75;3.13;;;8.00;99.90;;;;;;4997693;28;20117;-69
2022/03/18 09:52:03;;;;;;;18.90;3.50;;;8.00;99.90;;;;;;4993680;28;20140;-70
2022/03/18 09:54:32;;;;;;;8.88;2.45;;;7.90;99.90;;;;;;4991194;28;20058;-69
2022/03/18 09:57:01;;;;;;;10.57;2.47;;;7.80;99.90;;;;;;4995649;28;20148;-68
2022/03/18 09:59:28;;;;;;;5.72;1.80;;;7.80;99.90;;;;;;4995374;28;20135;-66
2022/03/18 10:02:21;;;;;;;13.80;2.85;;;7.90;99.90;;;;;;4996770;28;20050;-69
2022/03/18 10:05:01;;;;;;;6.90;2.25;;;8.00;99.90;;;;;;4995349;28;20123;-68
2022/03/18 10:07:29;;;;;;;8.95;2.72;;;8.10;99.90;;;;;;4994773;28;20061;-70
2022/03/18 10:10:06;;;;;;;7.90;2.25;;;8.10;99.90;;;;;;4993418;28;20111;-70
2022/03/18 10:12:34;;;;;;;9.90;2.47;;;8.20;99.90;;;;;;4992837;28;20153;-68
2022/03/18 10:15:10;;;;;;;18.08;5.00;;;8.20;99.90;;;;;;4991467;28;20046;-69
2022/03/18 10:17:45;;;;;;;8.38;3.50;;;8.20;99.90;;;;;;4993151;28;20078;-74
2022/03/18 10:20:30;;;;;;;9.02;3.35;;;8.10;99.90;;;;;;4993504;28;20050;-69
2022/03/18 10:23:16;;;;;;;10.65;3.10;;;8.10;99.90;;;;;;4993566;28;20054;-69
2022/03/18 10:25:50;;;;;;;9.52;2.33;;;8.20;99.90;;;;;;4994605;28;20081;-67
2022/03/18 10:28:36;;;;;;;8.77;2.20;;;8.20;99.90;;;;;;4995061;28;20144;-67
2022/03/18 10:31:21;;;;;;;10.68;4.68;;;8.30;99.90;;;;;;4991248;28;20152;-70
2022/03/18 10:39:37;;;;;;;22.00;3.75;;;8.50;99.90;;;;;;4992583;28;20138;-70
2022/03/18 10:42:12;;;;;;;10.07;2.22;;;8.40;99.90;;;;;;4993212;28;20057;-67
2022/03/18 10:44:51;;;;;;;13.32;2.58;;;8.30;99.90;;;;;;4992912;28;20131;-68
2022/03/18 10:47:35;;;;;;;8.77;3.70;;;8.20;99.90;;;;;;4990052;28;20061;-68
2022/03/18 10:50:11;;;;;;;13.07;2.75;;;8.00;99.90;;;;;;4995656;28;20061;-72
2022/03/18 10:52:48;;;;;;;20.70;4.13;;;7.80;99.90;;;;;;4997020;28;20072;-68
2022/03/18 10:55:20;;;;;;;10.38;3.72;;;7.80;99.90;;;;;;4994271;28;20245;-69
2022/03/18 10:57:52;;;;;;;6.10;2.70;;;7.90;99.90;;;;;;4994929;28;20124;-68
2022/03/18 11:00:20;;;;;;;6.47;2.75;;;8.10;99.90;;;;;;4995557;28;20054;-68
2022/03/18 11:02:52;;;;;;;19.67;4.70;;;8.10;99.90;;;;;;4994749;28;20164;-68
2022/03/18 11:05:21;;;;;;;10.70;4.20;;;8.40;99.90;;;;;;4991259;28;20144;-70
2022/03/18 11:07:51;;;;;;;9.77;3.47;;;8.50;99.90;;;;;;4995365;28;20061;-66
2022/03/18 11:13:09;;;;;;;10.05;4.20;;;8.60;99.90;;;;;;4993162;28;20046;-71
2022/03/18 11:15:39;;;;;;;15.88;4.18;;;8.50;99.90;;;;;;4993695;28;20823;-69
2022/03/18 11:18:11;;;;;;;10.05;3.30;;;8.40;99.90;;;;;;4994130;28;20049;-70
2022/03/18 11:20:43;;;;;;;12.18;3.00;;;8.30;99.90;;;;;;4992781;28;20054;-70
2022/03/18 11:23:15;;;;;;;10.98;2.38;;;8.30;99.90;;;;;;4992992;28;20080;-70
2022/03/18 11:25:46;;;;;;;12.98;3.45;;;8.30;99.90;;;;;;4994699;28;20135;-68
2022/03/18 11:28:19;;;;;;;8.20;2.70;;;8.30;99.90;;;;;;4994230;28;20049;-67
2022/03/18 11:30:48;;;;;;;9.60;2.80;;;8.40;99.90;;;;;;4994657;28;20057;-69
2022/03/18 11:33:14;;;;;;;9.57;2.63;;;8.40;99.90;;;;;;4992374;28;20141;-68
2022/03/18 11:35:51;;;;;;;8.98;3.22;;;8.30;99.90;;;;;;4994107;28;21481;-67
2022/03/18 11:38:22;;;;;;;19.67;2.83;;;8.20;99.90;;;;;;4993321;28;20112;-67
2022/03/18 11:41:00;;;;;;;17.75;3.70;;;8.10;99.90;;;;;;4993010;28;20073;-69
2022/03/18 11:43:41;;;;;;;14.63;3.38;;;8.10;99.90;;;;;;4991304;28;20060;-67
2022/03/18 11:46:13;;;;;;;18.40;4.00;;;8.10;99.90;;;;;;4993065;28;20081;-64
2022/03/18 11:48:41;;;;;;;14.90;4.35;;;8.00;99.90;;;;;;4992193;28;20046;-70
2022/03/18 11:51:29;;;;;;;17.55;4.45;;;8.00;99.90;;;;;;4989763;28;20554;-67
2022/03/18 11:54:03;;;;;;;13.93;4.57;;;8.00;99.90;;;;;;4995252;28;20050;-70
2022/03/18 11:56:39;;;;;;;12.25;3.55;;;7.90;99.90;;;;;;4992932;28;20695;-68
2022/03/18 11:59:29;;;;;;;9.25;3.22;;;8.10;99.90;;;;;;4992811;28;20060;-69
2022/03/18 12:02:03;;;;;;;15.13;6.13;;;8.30;99.90;;;;;;4992980;28;20183;-71
2022/03/18 12:04:33;;;;;;;15.57;4.40;;;8.30;99.90;;;;;;4996387;28;20137;-69
2022/03/18 12:09:58;;;;;;;12.48;4.70;;;8.40;99.90;;;;;;4990672;28;20060;-71
2022/03/18 12:12:40;;;;;;;22.88;4.43;;;8.30;99.90;;;;;;4994534;28;20141;-70
2022/03/18 12:15:22;;;;;;;16.52;3.67;;;8.30;99.90;;;;;;4993804;28;21415;-64
2022/03/18 12:17:55;;;;;;;24.50;6.32;;;8.20;99.90;;;;;;4991958;28;20060;-70
2022/03/18 12:20:31;;;;;;;15.20;4.70;;;8.20;99.90;;;;;;4992189;28;20053;-65
2022/03/18 12:23:08;;;;;;;17.00;5.10;;;8.10;99.90;;;;;;4994336;28;21525;-68
2022/03/18 12:25:36;;;;;;;19.67;4.32;;;8.00;99.90;;;;;;4993222;28;20225;-65
2022/03/18 12:28:03;;;;;;;13.98;3.95;;;7.90;99.90;;;;;;4992912;28;20168;-68
2022/03/18 12:30:32;;;;;;;11.77;4.82;;;8.00;99.90;;;;;;4990600;28;20059;-70
2022/03/18 12:33:04;;;;;;;10.43;4.00;;;8.00;99.90;;;;;;4994051;28;20046;-69
2022/03/18 12:35:32;;;;;;;16.60;5.10;;;7.90;99.90;;;;;;4993265;28;20095;-72
2022/03/18 12:38:08;;;;;;;11.43;3.72;;;7.90;99.90;;;;;;4992636;28;20081;-71
2022/03/18 12:40:41;;;;;;;16.42;5.65;;;7.90;99.90;;;;;;4990866;28;20127;-72
2022/03/18 12:43:08;;;;;;;15.18;4.95;;;7.90;99.90;;;;;;4991363;28;20076;-69
2022/03/18 12:45:39;;;;;;;13.85;4.10;;;7.80;99.90;;;;;;4992863;28;20140;-69
2022/03/18 12:48:08;;;;;;;13.07;3.15;;;7.80;99.90;;;;;;4990766;28;20552;-68
2022/03/18 12:50:42;;;;;;;19.85;3.33;;;7.70;99.90;;;;;;4992316;28;20136;-68
2022/03/18 12:53:23;;;;;;;12.73;4.13;;;7.80;99.90;;;;;;4990000;28;20472;-69
2022/03/18 12:55:57;;;;;;;14.05;3.65;;;7.90;99.90;;;;;;4990732;28;20060;-68
2022/03/18 12:58:39;;;;;;;24.73;4.50;;;8.10;99.90;;;;;;4987324;28;20098;-69
2022/03/18 13:01:27;;;;;;;11.98;4.13;;;8.20;99.90;;;;;;4991935;28;20038;-70
2022/03/18 13:03:55;;;;;;;9.13;2.65;;;8.30;99.90;;;;;;4993614;28;20057;-70
2022/03/18 13:06:27;;;;;;;10.85;3.92;;;8.50;99.90;;;;;;4992564;28;20166;-69
2022/03/18 13:09:09;;;;;;;15.43;3.30;;;8.70;99.90;;;;;;4994995;28;20136;-68
2022/03/18 13:11:41;;;;;;;18.08;3.63;;;8.70;99.90;;;;;;4993219;28;20451;-66
2022/03/18 13:14:09;;;;;;;26.80;4.07;;;8.80;99.90;;;;;;4992095;28;20065;-71
2022/03/18 13:16:45;;;;;;;13.30;4.57;;;8.70;99.90;;;;;;4994288;28;20127;-68
2022/03/18 13:19:12;;;;;;;14.00;3.00;;;8.60;99.90;;;;;;4994011;28;20156;-65